sensor_id;sensor_type;location;lat;lon;timestamp;P1;durP1;ratioP1;P2;durP2;ratioP2
4831;SDS011;2430;51.322;7.864;2023-09-19T00:00:58;6.23;;;3.90;;
4831;SDS011;2430;51.322;7.864;2023-09-19T00:03:25;4.53;;;3.93;;
4831;SDS011;2430;51.322;7.864;2023-09-19T00:05:52;7.67;;;4.30;;
4831;SDS011;2430;51.322;7.864;2023-09-19T00:08:20;6.50;;;4.23;;
4831;SDS011;2430;51.322;7.864;2023-09-19T00:10:50;5.77;;;4.00;;
4831;SDS011;2430;51.322;7.864;2023-09-19T00:13:16;8.20;;;4.30;;
4831;SDS011;2430;51.322;7.864;2023-09-19T00:15:44;9.63;;;3.97;;
4831;SDS011;2430;51.322;7.864;2023-09-19T00:18:13;5.90;;;3.80;;
4831;SDS011;2430;51.322;7.864;2023-09-19T00:20:40;7.47;;;3.63;;
4831;SDS011;2430;51.322;7.864;2023-09-19T00:23:08;13.20;;;4.00;;
4831;SDS011;2430;51.322;7.864;2023-09-19T00:25:35;10.53;;;3.70;;
4831;SDS011;2430;51.322;7.864;2023-09-19T00:28:02;7.10;;;3.37;;
4831;SDS011;2430;51.322;7.864;2023-09-19T00:30:28;6.80;;;3.10;;
4831;SDS011;2430;51.322;7.864;2023-09-19T00:32:55;7.57;;;2.80;;
4831;SDS011;2430;51.322;7.864;2023-09-19T00:35:22;10.63;;;3.13;;
4831;SDS011;2430;51.322;7.864;2023-09-19T00:37:48;10.97;;;3.43;;
4831;SDS011;2430;51.322;7.864;2023-09-19T00:40:16;11.33;;;3.67;;
4831;SDS011;2430;51.322;7.864;2023-09-19T00:42:43;6.93;;;3.90;;
4831;SDS011;2430;51.322;7.864;2023-09-19T00:45:10;8.73;;;3.80;;
4831;SDS011;2430;51.322;7.864;2023-09-19T00:47:37;8.33;;;3.77;;
4831;SDS011;2430;51.322;7.864;2023-09-19T00:50:04;10.73;;;3.30;;
4831;SDS011;2430;51.322;7.864;2023-09-19T00:52:32;5.23;;;3.53;;
4831;SDS011;2430;51.322;7.864;2023-09-19T00:54:59;11.30;;;3.47;;
4831;SDS011;2430;51.322;7.864;2023-09-19T00:57:28;9.70;;;4.03;;
4831;SDS011;2430;51.322;7.864;2023-09-19T00:59:58;7.77;;;4.03;;
4831;SDS011;2430;51.322;7.864;2023-09-19T01:02:26;14.07;;;4.73;;
4831;SDS011;2430;51.322;7.864;2023-09-19T01:04:53;7.63;;;4.00;;
4831;SDS011;2430;51.322;7.864;2023-09-19T01:07:20;6.93;;;4.00;;
4831;SDS011;2430;51.322;7.864;2023-09-19T01:09:47;13.83;;;4.20;;
4831;SDS011;2430;51.322;7.864;2023-09-19T01:12:15;5.33;;;3.53;;
4831;SDS011;2430;51.322;7.864;2023-09-19T01:14:44;8.40;;;3.07;;
4831;SDS011;2430;51.322;7.864;2023-09-19T01:17:20;11.00;;;3.77;;
4831;SDS011;2430;51.322;7.864;2023-09-19T01:20:08;14.73;;;3.97;;
4831;SDS011;2430;51.322;7.864;2023-09-19T01:22:41;15.23;;;2.77;;
4831;SDS011;2430;51.322;7.864;2023-09-19T01:28:06;11.83;;;3.77;;
4831;SDS011;2430;51.322;7.864;2023-09-19T01:30:35;12.00;;;3.30;;
4831;SDS011;2430;51.322;7.864;2023-09-19T01:33:02;7.10;;;3.13;;
4831;SDS011;2430;51.322;7.864;2023-09-19T01:35:31;19.47;;;3.30;;
4831;SDS011;2430;51.322;7.864;2023-09-19T01:37:57;6.20;;;2.67;;
4831;SDS011;2430;51.322;7.864;2023-09-19T01:40:24;9.73;;;2.90;;
4831;SDS011;2430;51.322;7.864;2023-09-19T01:42:53;10.60;;;3.13;;
4831;SDS011;2430;51.322;7.864;2023-09-19T01:45:22;10.33;;;3.03;;
4831;SDS011;2430;51.322;7.864;2023-09-19T01:47:53;6.90;;;2.43;;
4831;SDS011;2430;51.322;7.864;2023-09-19T01:50:23;5.73;;;2.80;;
4831;SDS011;2430;51.322;7.864;2023-09-19T01:52:54;12.90;;;3.20;;
4831;SDS011;2430;51.322;7.864;2023-09-19T01:55:22;9.67;;;2.90;;
4831;SDS011;2430;51.322;7.864;2023-09-19T01:57:52;14.47;;;3.40;;
4831;SDS011;2430;51.322;7.864;2023-09-19T02:00:20;6.77;;;2.80;;
4831;SDS011;2430;51.322;7.864;2023-09-19T02:02:48;12.13;;;3.90;;
4831;SDS011;2430;51.322;7.864;2023-09-19T02:05:23;11.13;;;2.93;;
4831;SDS011;2430;51.322;7.864;2023-09-19T02:07:50;8.80;;;3.17;;
4831;SDS011;2430;51.322;7.864;2023-09-19T02:10:18;9.60;;;2.83;;
4831;SDS011;2430;51.322;7.864;2023-09-19T02:12:44;8.47;;;3.20;;
4831;SDS011;2430;51.322;7.864;2023-09-19T02:15:11;6.97;;;2.57;;
4831;SDS011;2430;51.322;7.864;2023-09-19T02:17:37;8.20;;;2.90;;
4831;SDS011;2430;51.322;7.864;2023-09-19T02:20:05;7.97;;;3.40;;
4831;SDS011;2430;51.322;7.864;2023-09-19T02:22:40;12.43;;;3.30;;
4831;SDS011;2430;51.322;7.864;2023-09-19T02:25:07;8.87;;;2.90;;
4831;SDS011;2430;51.322;7.864;2023-09-19T02:27:33;7.90;;;3.50;;
4831;SDS011;2430;51.322;7.864;2023-09-19T02:29:59;8.10;;;2.80;;
4831;SDS011;2430;51.322;7.864;2023-09-19T02:32:29;7.80;;;3.50;;
4831;SDS011;2430;51.322;7.864;2023-09-19T02:34:56;9.83;;;2.87;;
4831;SDS011;2430;51.322;7.864;2023-09-19T02:37:23;11.30;;;2.90;;
4831;SDS011;2430;51.322;7.864;2023-09-19T02:39:50;6.67;;;2.80;;
4831;SDS011;2430;51.322;7.864;2023-09-19T02:42:17;11.63;;;2.70;;
4831;SDS011;2430;51.322;7.864;2023-09-19T02:44:43;9.60;;;4.10;;
4831;SDS011;2430;51.322;7.864;2023-09-19T02:47:12;12.27;;;3.17;;
4831;SDS011;2430;51.322;7.864;2023-09-19T02:49:40;14.57;;;3.07;;
4831;SDS011;2430;51.322;7.864;2023-09-19T02:52:07;8.83;;;2.33;;
4831;SDS011;2430;51.322;7.864;2023-09-19T02:54:33;5.10;;;3.07;;
4831;SDS011;2430;51.322;7.864;2023-09-19T02:57:01;15.83;;;2.90;;
4831;SDS011;2430;51.322;7.864;2023-09-19T02:59:28;8.60;;;2.80;;
4831;SDS011;2430;51.322;7.864;2023-09-19T03:01:56;8.50;;;3.37;;
4831;SDS011;2430;51.322;7.864;2023-09-19T03:04:22;8.13;;;2.27;;
4831;SDS011;2430;51.322;7.864;2023-09-19T03:06:49;6.83;;;2.17;;
4831;SDS011;2430;51.322;7.864;2023-09-19T03:09:16;10.17;;;2.87;;
4831;SDS011;2430;51.322;7.864;2023-09-19T03:11:44;13.70;;;2.47;;
4831;SDS011;2430;51.322;7.864;2023-09-19T03:14:12;9.77;;;2.57;;
4831;SDS011;2430;51.322;7.864;2023-09-19T03:16:40;23.83;;;3.30;;
4831;SDS011;2430;51.322;7.864;2023-09-19T03:19:07;6.80;;;2.30;;
4831;SDS011;2430;51.322;7.864;2023-09-19T03:21:35;6.77;;;2.40;;
4831;SDS011;2430;51.322;7.864;2023-09-19T03:24:02;7.17;;;2.77;;
4831;SDS011;2430;51.322;7.864;2023-09-19T03:26:28;9.13;;;2.23;;
4831;SDS011;2430;51.322;7.864;2023-09-19T03:28:55;10.07;;;2.50;;
4831;SDS011;2430;51.322;7.864;2023-09-19T03:31:22;7.90;;;2.20;;
4831;SDS011;2430;51.322;7.864;2023-09-19T03:33:49;17.50;;;2.37;;
4831;SDS011;2430;51.322;7.864;2023-09-19T03:36:15;8.23;;;2.40;;
4831;SDS011;2430;51.322;7.864;2023-09-19T03:38:41;7.17;;;2.40;;
4831;SDS011;2430;51.322;7.864;2023-09-19T03:41:08;14.23;;;2.60;;
4831;SDS011;2430;51.322;7.864;2023-09-19T03:43:39;9.63;;;2.60;;
4831;SDS011;2430;51.322;7.864;2023-09-19T03:46:05;7.30;;;2.23;;
4831;SDS011;2430;51.322;7.864;2023-09-19T03:48:34;16.73;;;2.63;;
4831;SDS011;2430;51.322;7.864;2023-09-19T03:51:00;7.63;;;2.77;;
4831;SDS011;2430;51.322;7.864;2023-09-19T03:53:27;9.83;;;3.00;;
4831;SDS011;2430;51.322;7.864;2023-09-19T03:55:53;6.90;;;2.23;;
4831;SDS011;2430;51.322;7.864;2023-09-19T03:58:20;13.33;;;2.50;;
4831;SDS011;2430;51.322;7.864;2023-09-19T04:00:46;12.10;;;2.60;;
4831;SDS011;2430;51.322;7.864;2023-09-19T04:03:13;7.67;;;2.27;;
4831;SDS011;2430;51.322;7.864;2023-09-19T04:05:45;9.90;;;2.80;;
4831;SDS011;2430;51.322;7.864;2023-09-19T04:08:12;14.50;;;2.57;;
4831;SDS011;2430;51.322;7.864;2023-09-19T04:10:39;13.57;;;2.83;;
4831;SDS011;2430;51.322;7.864;2023-09-19T04:13:05;5.27;;;2.07;;
4831;SDS011;2430;51.322;7.864;2023-09-19T04:15:32;8.40;;;2.60;;
4831;SDS011;2430;51.322;7.864;2023-09-19T04:17:58;8.83;;;3.10;;
4831;SDS011;2430;51.322;7.864;2023-09-19T04:20:25;13.90;;;2.87;;
4831;SDS011;2430;51.322;7.864;2023-09-19T04:22:53;10.10;;;2.87;;
4831;SDS011;2430;51.322;7.864;2023-09-19T04:25:19;16.30;;;2.97;;
4831;SDS011;2430;51.322;7.864;2023-09-19T04:27:46;6.33;;;2.13;;
4831;SDS011;2430;51.322;7.864;2023-09-19T04:30:12;9.93;;;4.17;;
4831;SDS011;2430;51.322;7.864;2023-09-19T04:32:39;9.50;;;2.87;;
4831;SDS011;2430;51.322;7.864;2023-09-19T04:35:07;4.50;;;2.40;;
4831;SDS011;2430;51.322;7.864;2023-09-19T04:37:38;7.90;;;2.50;;
4831;SDS011;2430;51.322;7.864;2023-09-19T04:40:08;9.60;;;2.97;;
4831;SDS011;2430;51.322;7.864;2023-09-19T04:42:42;6.33;;;2.23;;
4831;SDS011;2430;51.322;7.864;2023-09-19T04:45:09;8.50;;;2.77;;
4831;SDS011;2430;51.322;7.864;2023-09-19T04:47:35;12.10;;;2.90;;
4831;SDS011;2430;51.322;7.864;2023-09-19T04:50:04;8.83;;;2.10;;
4831;SDS011;2430;51.322;7.864;2023-09-19T04:52:31;6.87;;;2.50;;
4831;SDS011;2430;51.322;7.864;2023-09-19T04:54:58;8.10;;;2.70;;
4831;SDS011;2430;51.322;7.864;2023-09-19T04:57:26;12.10;;;2.40;;
4831;SDS011;2430;51.322;7.864;2023-09-19T04:59:53;10.10;;;2.53;;
4831;SDS011;2430;51.322;7.864;2023-09-19T05:02:19;22.83;;;3.10;;
4831;SDS011;2430;51.322;7.864;2023-09-19T05:04:46;13.43;;;2.57;;
4831;SDS011;2430;51.322;7.864;2023-09-19T05:07:13;8.23;;;2.40;;
4831;SDS011;2430;51.322;7.864;2023-09-19T05:09:39;11.77;;;3.33;;
4831;SDS011;2430;51.322;7.864;2023-09-19T05:12:07;6.83;;;3.07;;
4831;SDS011;2430;51.322;7.864;2023-09-19T05:14:37;10.23;;;3.03;;
4831;SDS011;2430;51.322;7.864;2023-09-19T05:17:05;14.17;;;2.67;;
4831;SDS011;2430;51.322;7.864;2023-09-19T05:19:33;11.53;;;2.90;;
4831;SDS011;2430;51.322;7.864;2023-09-19T05:22:00;11.13;;;2.50;;
4831;SDS011;2430;51.322;7.864;2023-09-19T05:24:26;11.50;;;4.50;;
4831;SDS011;2430;51.322;7.864;2023-09-19T05:26:53;9.70;;;2.70;;
4831;SDS011;2430;51.322;7.864;2023-09-19T05:29:21;11.00;;;3.03;;
4831;SDS011;2430;51.322;7.864;2023-09-19T05:31:49;5.70;;;2.20;;
4831;SDS011;2430;51.322;7.864;2023-09-19T05:34:16;9.80;;;2.83;;
4831;SDS011;2430;51.322;7.864;2023-09-19T05:36:43;15.93;;;3.10;;
4831;SDS011;2430;51.322;7.864;2023-09-19T05:39:09;8.73;;;2.47;;
4831;SDS011;2430;51.322;7.864;2023-09-19T05:41:35;12.43;;;3.13;;
4831;SDS011;2430;51.322;7.864;2023-09-19T05:44:05;10.17;;;2.80;;
4831;SDS011;2430;51.322;7.864;2023-09-19T05:46:32;13.27;;;3.00;;
4831;SDS011;2430;51.322;7.864;2023-09-19T05:48:59;12.80;;;3.53;;
4831;SDS011;2430;51.322;7.864;2023-09-19T05:51:25;10.00;;;2.77;;
4831;SDS011;2430;51.322;7.864;2023-09-19T05:53:53;10.37;;;2.67;;
4831;SDS011;2430;51.322;7.864;2023-09-19T05:56:20;12.50;;;2.87;;
4831;SDS011;2430;51.322;7.864;2023-09-19T05:58:46;9.10;;;3.20;;
4831;SDS011;2430;51.322;7.864;2023-09-19T06:01:12;8.73;;;2.50;;
4831;SDS011;2430;51.322;7.864;2023-09-19T06:03:40;12.17;;;3.23;;
4831;SDS011;2430;51.322;7.864;2023-09-19T06:06:08;12.30;;;3.20;;
4831;SDS011;2430;51.322;7.864;2023-09-19T06:08:34;7.90;;;2.50;;
4831;SDS011;2430;51.322;7.864;2023-09-19T06:11:01;7.50;;;2.63;;
4831;SDS011;2430;51.322;7.864;2023-09-19T06:13:27;9.13;;;3.17;;
4831;SDS011;2430;51.322;7.864;2023-09-19T06:15:54;13.37;;;2.73;;
4831;SDS011;2430;51.322;7.864;2023-09-19T06:18:21;9.03;;;2.67;;
4831;SDS011;2430;51.322;7.864;2023-09-19T06:20:51;12.20;;;3.23;;
4831;SDS011;2430;51.322;7.864;2023-09-19T06:23:20;15.40;;;2.53;;
4831;SDS011;2430;51.322;7.864;2023-09-19T06:25:46;9.47;;;2.90;;
4831;SDS011;2430;51.322;7.864;2023-09-19T06:28:13;10.90;;;2.80;;
4831;SDS011;2430;51.322;7.864;2023-09-19T06:30:43;13.10;;;2.87;;
4831;SDS011;2430;51.322;7.864;2023-09-19T06:33:09;5.93;;;2.30;;
4831;SDS011;2430;51.322;7.864;2023-09-19T06:35:36;9.03;;;2.60;;
4831;SDS011;2430;51.322;7.864;2023-09-19T06:38:03;11.83;;;2.40;;
4831;SDS011;2430;51.322;7.864;2023-09-19T06:40:31;14.33;;;2.87;;
4831;SDS011;2430;51.322;7.864;2023-09-19T06:42:57;10.07;;;2.20;;
4831;SDS011;2430;51.322;7.864;2023-09-19T06:45:27;13.73;;;2.73;;
4831;SDS011;2430;51.322;7.864;2023-09-19T06:47:53;10.37;;;2.83;;
4831;SDS011;2430;51.322;7.864;2023-09-19T06:50:23;10.87;;;3.20;;
4831;SDS011;2430;51.322;7.864;2023-09-19T06:52:50;8.70;;;3.13;;
4831;SDS011;2430;51.322;7.864;2023-09-19T06:55:17;11.20;;;3.13;;
4831;SDS011;2430;51.322;7.864;2023-09-19T06:57:46;9.90;;;2.90;;
4831;SDS011;2430;51.322;7.864;2023-09-19T07:00:12;8.30;;;3.30;;
4831;SDS011;2430;51.322;7.864;2023-09-19T07:02:43;14.37;;;3.27;;
4831;SDS011;2430;51.322;7.864;2023-09-19T07:05:09;8.40;;;2.77;;
4831;SDS011;2430;51.322;7.864;2023-09-19T07:07:36;12.30;;;2.50;;
4831;SDS011;2430;51.322;7.864;2023-09-19T07:10:03;9.27;;;2.53;;
4831;SDS011;2430;51.322;7.864;2023-09-19T07:12:30;13.03;;;3.00;;
4831;SDS011;2430;51.322;7.864;2023-09-19T07:14:59;15.23;;;3.07;;
4831;SDS011;2430;51.322;7.864;2023-09-19T07:17:25;8.23;;;2.73;;
4831;SDS011;2430;51.322;7.864;2023-09-19T07:19:53;10.60;;;2.67;;
4831;SDS011;2430;51.322;7.864;2023-09-19T07:22:19;10.20;;;2.73;;
4831;SDS011;2430;51.322;7.864;2023-09-19T07:24:45;7.17;;;2.70;;
4831;SDS011;2430;51.322;7.864;2023-09-19T07:27:14;12.70;;;2.70;;
4831;SDS011;2430;51.322;7.864;2023-09-19T07:29:40;8.70;;;3.00;;
4831;SDS011;2430;51.322;7.864;2023-09-19T07:32:08;8.17;;;3.03;;
4831;SDS011;2430;51.322;7.864;2023-09-19T07:34:35;10.70;;;2.97;;
4831;SDS011;2430;51.322;7.864;2023-09-19T07:37:01;8.20;;;2.90;;
4831;SDS011;2430;51.322;7.864;2023-09-19T07:39:28;13.07;;;3.00;;
4831;SDS011;2430;51.322;7.864;2023-09-19T07:41:54;12.83;;;3.10;;
4831;SDS011;2430;51.322;7.864;2023-09-19T07:44:21;21.67;;;3.07;;
4831;SDS011;2430;51.322;7.864;2023-09-19T07:46:48;7.40;;;2.90;;
4831;SDS011;2430;51.322;7.864;2023-09-19T07:49:17;13.70;;;2.70;;
4831;SDS011;2430;51.322;7.864;2023-09-19T07:51:44;9.87;;;2.63;;
4831;SDS011;2430;51.322;7.864;2023-09-19T07:54:11;15.80;;;2.90;;
4831;SDS011;2430;51.322;7.864;2023-09-19T07:56:38;14.27;;;3.27;;
4831;SDS011;2430;51.322;7.864;2023-09-19T07:59:04;10.80;;;3.00;;
4831;SDS011;2430;51.322;7.864;2023-09-19T08:01:30;15.17;;;3.30;;
4831;SDS011;2430;51.322;7.864;2023-09-19T08:03:58;11.53;;;3.20;;
4831;SDS011;2430;51.322;7.864;2023-09-19T08:06:25;11.43;;;3.23;;
4831;SDS011;2430;51.322;7.864;2023-09-19T08:08:54;17.87;;;3.23;;
4831;SDS011;2430;51.322;7.864;2023-09-19T08:11:22;9.77;;;2.40;;
4831;SDS011;2430;51.322;7.864;2023-09-19T08:13:49;10.97;;;3.17;;
4831;SDS011;2430;51.322;7.864;2023-09-19T08:16:16;9.43;;;3.00;;
4831;SDS011;2430;51.322;7.864;2023-09-19T08:18:46;14.10;;;3.80;;
4831;SDS011;2430;51.322;7.864;2023-09-19T08:21:13;11.40;;;2.67;;
4831;SDS011;2430;51.322;7.864;2023-09-19T08:23:42;7.63;;;2.57;;
4831;SDS011;2430;51.322;7.864;2023-09-19T08:26:08;19.63;;;2.73;;
4831;SDS011;2430;51.322;7.864;2023-09-19T08:28:34;9.37;;;2.47;;
4831;SDS011;2430;51.322;7.864;2023-09-19T08:31:01;8.03;;;2.27;;
4831;SDS011;2430;51.322;7.864;2023-09-19T08:33:29;11.20;;;2.80;;
4831;SDS011;2430;51.322;7.864;2023-09-19T08:35:56;8.50;;;2.60;;
4831;SDS011;2430;51.322;7.864;2023-09-19T08:38:22;10.17;;;3.10;;
4831;SDS011;2430;51.322;7.864;2023-09-19T08:40:50;11.03;;;2.53;;
4831;SDS011;2430;51.322;7.864;2023-09-19T08:43:16;13.07;;;2.83;;
4831;SDS011;2430;51.322;7.864;2023-09-19T08:45:43;11.73;;;3.37;;
4831;SDS011;2430;51.322;7.864;2023-09-19T08:48:17;9.03;;;2.53;;
4831;SDS011;2430;51.322;7.864;2023-09-19T08:50:47;9.80;;;3.13;;
4831;SDS011;2430;51.322;7.864;2023-09-19T08:53:16;8.67;;;2.27;;
4831;SDS011;2430;51.322;7.864;2023-09-19T08:55:45;7.87;;;2.33;;
4831;SDS011;2430;51.322;7.864;2023-09-19T08:58:15;11.43;;;2.67;;
4831;SDS011;2430;51.322;7.864;2023-09-19T09:00:44;6.67;;;2.20;;
4831;SDS011;2430;51.322;7.864;2023-09-19T09:03:12;17.83;;;3.23;;
4831;SDS011;2430;51.322;7.864;2023-09-19T09:05:39;7.20;;;2.47;;
4831;SDS011;2430;51.322;7.864;2023-09-19T09:08:08;10.80;;;2.90;;
4831;SDS011;2430;51.322;7.864;2023-09-19T09:10:36;9.93;;;2.50;;
4831;SDS011;2430;51.322;7.864;2023-09-19T09:13:05;11.43;;;2.40;;
4831;SDS011;2430;51.322;7.864;2023-09-19T09:15:35;12.93;;;2.40;;
4831;SDS011;2430;51.322;7.864;2023-09-19T09:18:02;12.50;;;3.70;;
4831;SDS011;2430;51.322;7.864;2023-09-19T09:20:29;13.30;;;2.83;;
4831;SDS011;2430;51.322;7.864;2023-09-19T09:22:56;12.43;;;2.83;;
4831;SDS011;2430;51.322;7.864;2023-09-19T09:25:26;15.67;;;2.87;;
4831;SDS011;2430;51.322;7.864;2023-09-19T09:28:12;12.33;;;2.90;;
4831;SDS011;2430;51.322;7.864;2023-09-19T09:30:46;11.20;;;3.00;;
4831;SDS011;2430;51.322;7.864;2023-09-19T09:33:12;9.37;;;2.63;;
4831;SDS011;2430;51.322;7.864;2023-09-19T09:35:47;7.83;;;2.60;;
4831;SDS011;2430;51.322;7.864;2023-09-19T09:38:17;8.33;;;2.33;;
4831;SDS011;2430;51.322;7.864;2023-09-19T09:40:45;10.43;;;2.73;;
4831;SDS011;2430;51.322;7.864;2023-09-19T09:43:24;6.43;;;2.30;;
4831;SDS011;2430;51.322;7.864;2023-09-19T09:45:54;7.40;;;2.33;;
4831;SDS011;2430;51.322;7.864;2023-09-19T09:48:36;8.27;;;2.83;;
4831;SDS011;2430;51.322;7.864;2023-09-19T09:51:04;10.77;;;2.40;;
4831;SDS011;2430;51.322;7.864;2023-09-19T09:53:33;8.17;;;2.37;;
4831;SDS011;2430;51.322;7.864;2023-09-19T09:56:00;14.13;;;2.77;;
4831;SDS011;2430;51.322;7.864;2023-09-19T09:58:27;10.07;;;2.50;;
4831;SDS011;2430;51.322;7.864;2023-09-19T10:00:56;8.10;;;2.20;;
4831;SDS011;2430;51.322;7.864;2023-09-19T10:03:31;9.63;;;2.20;;
4831;SDS011;2430;51.322;7.864;2023-09-19T10:05:59;8.90;;;2.20;;
4831;SDS011;2430;51.322;7.864;2023-09-19T10:08:27;7.10;;;2.40;;
4831;SDS011;2430;51.322;7.864;2023-09-19T10:10:56;6.33;;;2.27;;
4831;SDS011;2430;51.322;7.864;2023-09-19T10:13:30;9.87;;;2.67;;
4831;SDS011;2430;51.322;7.864;2023-09-19T10:16:00;9.63;;;3.07;;
4831;SDS011;2430;51.322;7.864;2023-09-19T10:18:30;10.47;;;2.90;;
4831;SDS011;2430;51.322;7.864;2023-09-19T10:20:58;14.60;;;2.20;;
4831;SDS011;2430;51.322;7.864;2023-09-19T10:23:25;5.87;;;2.40;;
4831;SDS011;2430;51.322;7.864;2023-09-19T10:25:55;5.17;;;2.23;;
4831;SDS011;2430;51.322;7.864;2023-09-19T10:28:22;12.57;;;2.80;;
4831;SDS011;2430;51.322;7.864;2023-09-19T10:30:50;7.30;;;2.60;;
4831;SDS011;2430;51.322;7.864;2023-09-19T10:33:18;12.43;;;2.20;;
4831;SDS011;2430;51.322;7.864;2023-09-19T10:35:46;9.30;;;2.17;;
4831;SDS011;2430;51.322;7.864;2023-09-19T10:38:13;11.20;;;3.10;;
4831;SDS011;2430;51.322;7.864;2023-09-19T10:40:40;8.27;;;2.40;;
4831;SDS011;2430;51.322;7.864;2023-09-19T10:43:11;7.73;;;2.40;;
4831;SDS011;2430;51.322;7.864;2023-09-19T10:45:38;8.70;;;2.30;;
4831;SDS011;2430;51.322;7.864;2023-09-19T10:48:05;5.37;;;2.33;;
4831;SDS011;2430;51.322;7.864;2023-09-19T10:50:35;7.03;;;2.20;;
4831;SDS011;2430;51.322;7.864;2023-09-19T10:53:03;8.47;;;2.40;;
4831;SDS011;2430;51.322;7.864;2023-09-19T10:55:33;6.30;;;2.00;;
4831;SDS011;2430;51.322;7.864;2023-09-19T10:58:00;7.27;;;2.87;;
4831;SDS011;2430;51.322;7.864;2023-09-19T11:00:29;6.63;;;2.63;;
4831;SDS011;2430;51.322;7.864;2023-09-19T11:03:18;6.10;;;2.57;;
4831;SDS011;2430;51.322;7.864;2023-09-19T11:08:29;11.20;;;2.63;;
4831;SDS011;2430;51.322;7.864;2023-09-19T11:10:57;11.87;;;2.70;;
4831;SDS011;2430;51.322;7.864;2023-09-19T11:13:24;3.40;;;1.90;;
4831;SDS011;2430;51.322;7.864;2023-09-19T11:21:38;5.33;;;2.20;;
4831;SDS011;2430;51.322;7.864;2023-09-19T11:27:09;7.27;;;2.80;;
4831;SDS011;2430;51.322;7.864;2023-09-19T11:29:37;9.13;;;2.60;;
4831;SDS011;2430;51.322;7.864;2023-09-19T11:32:04;8.03;;;2.77;;
4831;SDS011;2430;51.322;7.864;2023-09-19T11:40:07;8.70;;;2.83;;
4831;SDS011;2430;51.322;7.864;2023-09-19T11:42:42;3.80;;;2.07;;
4831;SDS011;2430;51.322;7.864;2023-09-19T11:47:51;5.20;;;1.80;;
4831;SDS011;2430;51.322;7.864;2023-09-19T11:50:17;3.47;;;1.60;;
4831;SDS011;2430;51.322;7.864;2023-09-19T11:52:45;7.73;;;2.20;;
4831;SDS011;2430;51.322;7.864;2023-09-19T11:55:12;6.13;;;2.40;;
4831;SDS011;2430;51.322;7.864;2023-09-19T11:57:39;7.20;;;2.13;;
4831;SDS011;2430;51.322;7.864;2023-09-19T12:00:10;10.63;;;2.10;;
4831;SDS011;2430;51.322;7.864;2023-09-19T12:02:43;3.30;;;1.80;;
4831;SDS011;2430;51.322;7.864;2023-09-19T12:05:13;8.90;;;2.10;;
4831;SDS011;2430;51.322;7.864;2023-09-19T12:07:43;4.80;;;1.70;;
4831;SDS011;2430;51.322;7.864;2023-09-19T12:10:12;6.03;;;1.90;;
4831;SDS011;2430;51.322;7.864;2023-09-19T12:12:40;5.47;;;1.93;;
4831;SDS011;2430;51.322;7.864;2023-09-19T12:15:14;11.00;;;2.30;;
4831;SDS011;2430;51.322;7.864;2023-09-19T12:17:41;6.63;;;2.20;;
4831;SDS011;2430;51.322;7.864;2023-09-19T12:20:09;7.50;;;2.30;;
4831;SDS011;2430;51.322;7.864;2023-09-19T12:22:40;6.47;;;2.33;;
4831;SDS011;2430;51.322;7.864;2023-09-19T12:25:08;4.90;;;2.60;;
4831;SDS011;2430;51.322;7.864;2023-09-19T12:27:41;10.67;;;2.23;;
4831;SDS011;2430;51.322;7.864;2023-09-19T12:30:08;3.93;;;2.10;;
4831;SDS011;2430;51.322;7.864;2023-09-19T12:32:36;6.63;;;2.13;;
4831;SDS011;2430;51.322;7.864;2023-09-19T12:35:05;6.67;;;2.43;;
4831;SDS011;2430;51.322;7.864;2023-09-19T12:37:36;5.47;;;2.07;;
4831;SDS011;2430;51.322;7.864;2023-09-19T12:40:05;5.43;;;2.20;;
4831;SDS011;2430;51.322;7.864;2023-09-19T12:42:42;4.40;;;1.90;;
4831;SDS011;2430;51.322;7.864;2023-09-19T12:45:09;5.60;;;1.80;;
4831;SDS011;2430;51.322;7.864;2023-09-19T12:47:39;7.87;;;2.00;;
4831;SDS011;2430;51.322;7.864;2023-09-19T12:50:09;6.63;;;1.90;;
4831;SDS011;2430;51.322;7.864;2023-09-19T12:52:40;12.73;;;2.80;;
4831;SDS011;2430;51.322;7.864;2023-09-19T12:55:06;3.77;;;1.97;;
4831;SDS011;2430;51.322;7.864;2023-09-19T12:57:34;8.30;;;2.23;;
4831;SDS011;2430;51.322;7.864;2023-09-19T13:00:01;4.37;;;2.37;;
4831;SDS011;2430;51.322;7.864;2023-09-19T13:02:28;6.10;;;2.07;;
4831;SDS011;2430;51.322;7.864;2023-09-19T13:04:55;4.80;;;2.30;;
4831;SDS011;2430;51.322;7.864;2023-09-19T13:07:40;6.20;;;2.27;;
4831;SDS011;2430;51.322;7.864;2023-09-19T13:10:08;3.30;;;1.70;;
4831;SDS011;2430;51.322;7.864;2023-09-19T13:12:35;7.77;;;1.90;;
4831;SDS011;2430;51.322;7.864;2023-09-19T13:15:07;6.40;;;2.10;;
4831;SDS011;2430;51.322;7.864;2023-09-19T13:17:42;5.30;;;1.97;;
4831;SDS011;2430;51.322;7.864;2023-09-19T13:20:19;6.03;;;2.67;;
4831;SDS011;2430;51.322;7.864;2023-09-19T13:22:50;7.90;;;2.30;;
4831;SDS011;2430;51.322;7.864;2023-09-19T13:25:18;6.60;;;2.07;;
4831;SDS011;2430;51.322;7.864;2023-09-19T13:27:45;7.47;;;2.43;;
4831;SDS011;2430;51.322;7.864;2023-09-19T13:30:13;4.17;;;2.40;;
4831;SDS011;2430;51.322;7.864;2023-09-19T13:32:42;6.20;;;2.33;;
4831;SDS011;2430;51.322;7.864;2023-09-19T13:35:10;9.93;;;2.87;;
4831;SDS011;2430;51.322;7.864;2023-09-19T13:37:38;5.37;;;1.83;;
4831;SDS011;2430;51.322;7.864;2023-09-19T13:40:06;8.03;;;2.20;;
4831;SDS011;2430;51.322;7.864;2023-09-19T13:42:33;4.53;;;2.10;;
4831;SDS011;2430;51.322;7.864;2023-09-19T13:44:59;8.50;;;1.90;;
4831;SDS011;2430;51.322;7.864;2023-09-19T13:47:26;8.50;;;2.17;;
4831;SDS011;2430;51.322;7.864;2023-09-19T13:49:52;5.77;;;2.17;;
4831;SDS011;2430;51.322;7.864;2023-09-19T13:52:20;3.83;;;2.03;;
4831;SDS011;2430;51.322;7.864;2023-09-19T13:54:48;3.77;;;1.90;;
4831;SDS011;2430;51.322;7.864;2023-09-19T13:57:14;4.67;;;2.33;;
4831;SDS011;2430;51.322;7.864;2023-09-19T13:59:41;4.57;;;1.90;;
4831;SDS011;2430;51.322;7.864;2023-09-19T14:02:07;6.00;;;2.10;;
4831;SDS011;2430;51.322;7.864;2023-09-19T14:04:34;5.10;;;1.93;;
4831;SDS011;2430;51.322;7.864;2023-09-19T14:07:00;3.20;;;1.80;;
4831;SDS011;2430;51.322;7.864;2023-09-19T14:09:28;5.63;;;2.50;;
4831;SDS011;2430;51.322;7.864;2023-09-19T14:11:55;8.10;;;2.40;;
4831;SDS011;2430;51.322;7.864;2023-09-19T14:14:22;4.43;;;2.30;;
4831;SDS011;2430;51.322;7.864;2023-09-19T14:16:48;6.43;;;2.30;;
4831;SDS011;2430;51.322;7.864;2023-09-19T14:19:14;7.77;;;2.10;;
4831;SDS011;2430;51.322;7.864;2023-09-19T14:21:41;13.83;;;2.47;;
4831;SDS011;2430;51.322;7.864;2023-09-19T14:24:08;9.90;;;2.00;;
4831;SDS011;2430;51.322;7.864;2023-09-19T14:26:36;7.17;;;2.10;;
4831;SDS011;2430;51.322;7.864;2023-09-19T14:29:02;4.00;;;2.03;;
4831;SDS011;2430;51.322;7.864;2023-09-19T14:31:28;4.97;;;1.97;;
4831;SDS011;2430;51.322;7.864;2023-09-19T14:33:55;5.40;;;2.23;;
4831;SDS011;2430;51.322;7.864;2023-09-19T14:36:22;6.40;;;2.20;;
4831;SDS011;2430;51.322;7.864;2023-09-19T14:38:51;7.80;;;2.27;;
4831;SDS011;2430;51.322;7.864;2023-09-19T14:41:19;6.03;;;2.17;;
4831;SDS011;2430;51.322;7.864;2023-09-19T14:43:46;4.23;;;1.60;;
4831;SDS011;2430;51.322;7.864;2023-09-19T14:46:13;4.97;;;1.80;;
4831;SDS011;2430;51.322;7.864;2023-09-19T14:48:39;4.57;;;2.00;;
4831;SDS011;2430;51.322;7.864;2023-09-19T14:51:06;6.03;;;2.03;;
4831;SDS011;2430;51.322;7.864;2023-09-19T14:53:34;5.63;;;1.60;;
4831;SDS011;2430;51.322;7.864;2023-09-19T14:56:00;3.60;;;1.80;;
4831;SDS011;2430;51.322;7.864;2023-09-19T14:58:28;3.03;;;1.70;;
4831;SDS011;2430;51.322;7.864;2023-09-19T15:01:02;5.13;;;1.83;;
4831;SDS011;2430;51.322;7.864;2023-09-19T15:03:28;5.97;;;2.00;;
4831;SDS011;2430;51.322;7.864;2023-09-19T15:05:58;11.27;;;2.13;;
4831;SDS011;2430;51.322;7.864;2023-09-19T15:08:25;2.90;;;1.50;;
4831;SDS011;2430;51.322;7.864;2023-09-19T15:10:51;6.50;;;1.63;;
4831;SDS011;2430;51.322;7.864;2023-09-19T15:13:19;5.00;;;1.90;;
4831;SDS011;2430;51.322;7.864;2023-09-19T15:15:45;5.90;;;1.93;;
4831;SDS011;2430;51.322;7.864;2023-09-19T15:18:14;3.43;;;1.50;;
4831;SDS011;2430;51.322;7.864;2023-09-19T15:20:42;7.13;;;1.60;;
4831;SDS011;2430;51.322;7.864;2023-09-19T15:23:08;4.87;;;1.60;;
4831;SDS011;2430;51.322;7.864;2023-09-19T15:25:36;4.67;;;1.80;;
4831;SDS011;2430;51.322;7.864;2023-09-19T15:28:02;4.60;;;1.77;;
4831;SDS011;2430;51.322;7.864;2023-09-19T15:30:36;4.33;;;1.37;;
4831;SDS011;2430;51.322;7.864;2023-09-19T15:33:02;7.70;;;1.40;;
4831;SDS011;2430;51.322;7.864;2023-09-19T15:35:30;4.60;;;1.53;;
4831;SDS011;2430;51.322;7.864;2023-09-19T15:37:56;4.10;;;1.70;;